Terminal Aerodrome Forecast
Issued by NWS

Home | Current Version | Previous Version | Text Only | Print | Product List | Glossary Off
Versions: 1 2 3 4 5 6 7 8 9 10 11 12 13 14 15 16 17 18 19 20 21 22 23 24 25 26 27 28 29 30 31 32 33 34 35 36 37 38 39 40

000
FTUS43 KLOT 181600 AAB
TAFORD
TAF AMD
KORD 181607Z 1816/1918 36014G20KT 6SM -RA BKN024 OVC035
     FM181700 36012G16KT P6SM BKN025 BKN035
     FM182300 01008KT P6SM SCT040
     FM190300 VRB03KT P6SM FEW250
     FM191400 22008KT P6SM SCT250=

USA.gov is the U.S. government's official web portal to all federal, state and local government web resources and services.